Shalimar, Florida
Current Conditions -  °F | °C
As of 1:56 PM on Saturday 25 Oct 2014 (Local Time) from KVPS Reporting Station
Clear Clear  
Wind Chill: 78°   Ceiling: Unl
Heat Index: 78°   Visibility: 10mi
Dew Point: 43°   Wind: 9mph
Humidity: 29%   Direction: 10°N
Pressure: 30.03"   Gusts: NA
Location:  30.45°N, 86.58°W
Report Text: KVPS 251856Z 01008KT 320V040 10SM CLR 26/06 A3003 RMK AO2A SLP175 T02560061 $
Loading
Personal Weather Stations






























Interactive Weather Map
Tropical Storm Tracking
New forecast layout! Learn more

10-Day Weather Forecast

Advertisements
Track Severe Weather on mobile